Burlington, CO (80807)

10:31 AM MST on December 09, 2016 (GMT -0700)
Kit Carson County | | Change Station

Elev 4216 ft 39.24 °N, 102.28 °W | Updated 38 minutes ago

Clear
Clear
27 °F
Feels Like 14 °F
N
18
Wind Variable Wind from South

Today
High -- | Low -- °F
--% Chance of Precip.
Yesterday
High -- | Low -- °F
Precip. -- in
Pressure 30.32 in
Visibility 10.0 miles
Clouds Clear
Windchill 14 °F
Dew Point 15 °F
Humidity 61%
Rainfall 0.00 in
Snow Depth Not available.
6:57 AM 4:25 PM
Waxing Gibbous, 75% visible
METAR KITR 091653Z AUTO 19016KT 10SM CLR M03/M09 A3018 RMK AO2 SLP266 T10281094
Pressure 30.32 in
Visibility 10.0 miles
Clouds Clear
Windchill 14 °F
Dew Point 15 °F
Humidity 61%
Rainfall 0.00 in
Snow Depth Not available.
6:57 AM 4:25 PM
Waxing Gibbous, 75% visible
METAR KITR 091653Z AUTO 19016KT 10SM CLR M03/M09 A3018 RMK AO2 SLP266 T10281094

10-Day Weather Forecast

Almanac

Astronomy

Dec. 09, 2016 Rise Set
Actual Time
Civil Twilight
Nautical Twilight
Astronomical Twilight
Moon
Length of Visible Light
Length of Day
Tomorrow will be .
, % of the Moon is Illuminated

Today's Extremes

State Highs State Lows

Community

WunderPhotos

Upload Photos

1,956,462 photos uploaded!

WunderBlog® & News

Nearby

Air Quality

  Air Quality AQ Index Pollutant
Not available.

Snow Depth

Station Depth Elevation

Earthquake Activity

City Distance Mag. Time & Date
Minimum magnitude displayed is 2.5.

Coastal Water Temperatures

Place Temperature

Stations

Nearby Weather Stations

Station Location Temp. Windchill Dew Point Humidity Wind Precip. Elev Updated Type
                   

Watches & Warnings

There are currently no watches in effect.